Terminal Aerodrome Forecast
Issued by NWS

Home | Current Version | Previous Version | Text Only | Print | Product List | Glossary On
Versions: 1 2 3 4 5 6 7 8 9 10 11 12 13 14 15 16 17 18
622
FTUS43 KLSX 111344 AAA
TAFCPS
TAF AMD
KCPS 111344Z 1114/1212 05007KT P6SM SCT015 OVC050
      TEMPO 1114/1116 BKN015
     FM111800 06006KT P6SM BKN150
     FM120400 10004KT 2SM -SN BR OVC020
     FM120900 10003KT 4SM BR OVC025=

USA.gov is the U.S. government's official web portal to all federal, state and local government web resources and services.